Sylvan Grove, Kansas
Current Conditions -  °F | °C
As of 8:11 AM on Thursday 23 Oct 2014 (Local Time) from KRSL Reporting Station
Moderate Fog Moderate Fog  
Wind Chill: 57°   Ceiling: 400
Heat Index: 57°   Visibility: 0.5mi
Dew Point: 56°   Wind: 3mph
Humidity: 96%   Direction: 330°NNW
Pressure: 30.07"   Gusts: NA
Location:  39.01°N, 98.39°W
Report Text: KRSL 231311Z AUTO 33003KT 1/2SM FG VV004 14/13 A3007 RMK AO2 T01390133
Loading
Personal Weather Stations






























Interactive Weather Map
Tropical Storm Tracking
New forecast layout! Learn more

10-Day Weather Forecast

Advertisements
Track Severe Weather on mobile